Observation data for Tulia on 07/17/2019      Previous  Date  Next       Current Mesonet Observations  Soil Data  Daily Summary Page  Observations in Plain Language
KTIS 170500Z 15007KT 26/13 A3005 RMK A01 T02600131  RH  046%=      5-min Rain = 0
KTIS 170505Z 15008KT 26/13 A3004 RMK A01 T02580132  RH  048%=      5-min Rain = 0
KTIS 170510Z 16009KT 26/13 A3004 RMK A01 T02570134  RH  048%=      5-min Rain = 0
KTIS 170515Z 15009KT 26/14 A3004 RMK A01 T02570135  RH  049%=      5-min Rain = 0
KTIS 170520Z 16009KT 26/14 A3003 RMK A01 T02550136  RH  050%=      5-min Rain = 0
KTIS 170525Z 16009KT 25/14 A3003 RMK A01 T02530139  RH  051%=      5-min Rain = 0
KTIS 170530Z 16009KT 25/14 A3003 RMK A01 T02520140  RH  052%=      5-min Rain = 0
KTIS 170535Z 16008KT 25/14 A3003 RMK A01 T02540142  RH  052%=      5-min Rain = 0
KTIS 170540Z 16008KT 25/14 A3004 RMK A01 T02540143  RH  052%=      5-min Rain = 0
KTIS 170545Z 17008KT 25/14 A3004 RMK A01 T02540144  RH  053%=      5-min Rain = 0
KTIS 170550Z 16009KT 25/15 A3003 RMK A01 T02530145  RH  053%=      5-min Rain = 0
KTIS 170555Z 16009KT 25/15 A3003 RMK A01 T02530145  RH  054%=      5-min Rain = 0
KTIS 170600Z 16009KT 25/15 A3003 RMK A01 T02520146  RH  054%=      5-min Rain = 0
KTIS 170605Z 16009KT 25/15 A3003 RMK A01 T02510146  RH  054%=      5-min Rain = 0
KTIS 170610Z 16008KT 25/15 A3003 RMK A01 T02500146  RH  055%=      5-min Rain = 0
KTIS 170615Z 17008KT 25/15 A3003 RMK A01 T02490146  RH  055%=      5-min Rain = 0
KTIS 170620Z 17008KT 25/15 A3003 RMK A01 T02480147  RH  056%=      5-min Rain = 0
KTIS 170625Z 17009KT 25/15 A3003 RMK A01 T02490146  RH  055%=      5-min Rain = 0
KTIS 170630Z 17008KT 25/15 A3003 RMK A01 T02490146  RH  055%=      5-min Rain = 0
KTIS 170635Z 17008KT 25/15 A3003 RMK A01 T02480149  RH  056%=      5-min Rain = 0
KTIS 170640Z 17009KT 25/15 A3003 RMK A01 T02490149  RH  056%=      5-min Rain = 0
KTIS 170645Z 17010KT 25/15 A3003 RMK A01 T02510149  RH  056%=      5-min Rain = 0
KTIS 170650Z 17009KT 25/15 A3003 RMK A01 T02510150  RH  056%=      5-min Rain = 0
KTIS 170655Z 17009KT 25/15 A3003 RMK A01 T02500150  RH  056%=      5-min Rain = 0
KTIS 170700Z 17008KT 25/15 A3003 RMK A01 T02490150  RH  057%=      5-min Rain = 0
KTIS 170705Z 17008KT 25/15 A3003 RMK A01 T02490151  RH  057%=      5-min Rain = 0
KTIS 170710Z 16008KT 25/15 A3003 RMK A01 T02460153  RH  059%=      5-min Rain = 0
KTIS 170715Z 16008KT 24/15 A3003 RMK A01 T02430153  RH  060%=      5-min Rain = 0
KTIS 170720Z 17008KT 24/15 A3003 RMK A01 T02420152  RH  060%=      5-min Rain = 0
KTIS 170725Z 17007KT 24/15 A3003 RMK A01 T02410153  RH  060%=      5-min Rain = 0
KTIS 170730Z 18006KT 24/15 A3003 RMK A01 T02420152  RH  060%=      5-min Rain = 0
KTIS 170735Z 18006KT 24/15 A3003 RMK A01 T02420152  RH  060%=      5-min Rain = 0
KTIS 170740Z 18006KT 24/15 A3004 RMK A01 T02410152  RH  060%=      5-min Rain = 0
KTIS 170745Z 19006KT 24/15 A3004 RMK A01 T02430153  RH  060%=      5-min Rain = 0
KTIS 170750Z 19006KT 24/15 A3004 RMK A01 T02440154  RH  060%=      5-min Rain = 0
KTIS 170755Z 19006KT 24/15 A3004 RMK A01 T02440154  RH  060%=      5-min Rain = 0
KTIS 170800Z 18006KT 24/16 A3004 RMK A01 T02430155  RH  060%=      5-min Rain = 0
KTIS 170805Z 18006KT 24/16 A3003 RMK A01 T02410156  RH  062%=      5-min Rain = 0
KTIS 170810Z 19006KT 24/16 A3004 RMK A01 T02400155  RH  062%=      5-min Rain = 0
KTIS 170815Z 20005KT 24/16 A3004 RMK A01 T02410155  RH  062%=      5-min Rain = 0
KTIS 170820Z 20006KT 24/16 A3004 RMK A01 T02390156  RH  062%=      5-min Rain = 0
KTIS 170825Z 19007KT 24/16 A3004 RMK A01 T02390156  RH  063%=      5-min Rain = 0
KTIS 170830Z 19007KT 24/16 A3004 RMK A01 T02410157  RH  062%=      5-min Rain = 0
KTIS 170835Z 19008KT 24/16 A3004 RMK A01 T02420157  RH  062%=      5-min Rain = 0
KTIS 170840Z 19008KT 24/16 A3004 RMK A01 T02420158  RH  062%=      5-min Rain = 0
KTIS 170845Z 19008KT 24/16 A3003 RMK A01 T02420158  RH  062%=      5-min Rain = 0
KTIS 170850Z 19009KT 24/16 A3003 RMK A01 T02420158  RH  062%=      5-min Rain = 0
KTIS 170855Z 19010KT 24/16 A3003 RMK A01 T02430158  RH  062%=      5-min Rain = 0
KTIS 170900Z 20010KT 24/16 A3003 RMK A01 T02430158  RH  062%=      5-min Rain = 0
KTIS 170905Z 19010KT 24/16 A3003 RMK A01 T02440158  RH  062%=      5-min Rain = 0
KTIS 170910Z 19011KT 25/16 A3003 RMK A01 T02450158  RH  061%=      5-min Rain = 0
KTIS 170915Z 19012KT 25/16 A3003 RMK A01 T02470158  RH  060%=      5-min Rain = 0
KTIS 170920Z 19011KT 25/16 A3003 RMK A01 T02460158  RH  061%=      5-min Rain = 0
KTIS 170925Z 19011KT 25/16 A3003 RMK A01 T02450158  RH  061%=      5-min Rain = 0
KTIS 170930Z 19011KT 25/16 A3003 RMK A01 T02450158  RH  061%=      5-min Rain = 0
KTIS 170935Z 19010G15KT 25/16 A3003 RMK A01 T02450158  RH  061%=      5-min Rain = 0
KTIS 170940Z 19009KT 24/16 A3003 RMK A01 T02430158  RH  062%=      5-min Rain = 0
KTIS 170945Z 20009KT 24/16 A3003 RMK A01 T02410158  RH  062%=      5-min Rain = 0
KTIS 170950Z 19010KT 24/16 A3003 RMK A01 T02420158  RH  062%=      5-min Rain = 0
KTIS 170955Z 19010KT 24/16 A3003 RMK A01 T02410158  RH  063%=      5-min Rain = 0
KTIS 171000Z 20009G14KT 24/16 A3003 RMK A01 T02400158  RH  063%=      5-min Rain = 0
KTIS 171005Z 20010KT 24/16 A3003 RMK A01 T02400158  RH  063%=      5-min Rain = 0
KTIS 171010Z 19010KT 24/16 A3003 RMK A01 T02400158  RH  063%=      5-min Rain = 0
KTIS 171015Z 20010KT 24/16 A3003 RMK A01 T02410159  RH  063%=      5-min Rain = 0
KTIS 171020Z 20011KT 24/16 A3003 RMK A01 T02420159  RH  063%=      5-min Rain = 0
KTIS 171025Z 20011KT 24/16 A3002 RMK A01 T02420159  RH  063%=      5-min Rain = 0
KTIS 171030Z 20011KT 24/16 A3003 RMK A01 T02420159  RH  063%=      5-min Rain = 0
KTIS 171035Z 20010KT 24/16 A3003 RMK A01 T02410160  RH  063%=      5-min Rain = 0
KTIS 171040Z 19010KT 24/16 A3003 RMK A01 T02410160  RH  063%=      5-min Rain = 0
KTIS 171045Z 19010KT 24/16 A3003 RMK A01 T02410159  RH  063%=      5-min Rain = 0
KTIS 171050Z 19009KT 24/16 A3003 RMK A01 T02390160  RH  064%=      5-min Rain = 0
KTIS 171055Z 19009KT 24/16 A3003 RMK A01 T02370160  RH  065%=      5-min Rain = 0
KTIS 171100Z 20008KT 24/16 A3003 RMK A01 T02350160  RH  066%=      5-min Rain = 0
KTIS 171105Z 20008KT 23/16 A3003 RMK A01 T02340159  RH  066%=      5-min Rain = 0
KTIS 171110Z 21008KT 24/16 A3003 RMK A01 T02350159  RH  065%=      5-min Rain = 0
KTIS 171115Z 21009KT 24/16 A3003 RMK A01 T02360159  RH  065%=      5-min Rain = 0
KTIS 171120Z 21010KT 24/16 A3003 RMK A01 T02380159  RH  064%=      5-min Rain = 0
KTIS 171125Z 21010KT 24/16 A3003 RMK A01 T02380160  RH  064%=      5-min Rain = 0
KTIS 171130Z 21011KT 24/16 A3003 RMK A01 T02380160  RH  064%=      5-min Rain = 0
KTIS 171135Z 21011KT 24/16 A3003 RMK A01 T02390160  RH  064%=      5-min Rain = 0
KTIS 171140Z 21011KT 24/16 A3003 RMK A01 T02380160  RH  065%=      5-min Rain = 0
KTIS 171145Z 21011KT 24/16 A3003 RMK A01 T02380160  RH  065%=      5-min Rain = 0
KTIS 171150Z 21012KT 24/16 A3003 RMK A01 T02370161  RH  065%=      5-min Rain = 0
KTIS 171155Z 21011KT 24/16 A3003 RMK A01 T02370161  RH  065%=      5-min Rain = 0
KTIS 171200Z 21011KT 24/16 A3004 RMK A01 T02370161  RH  066%=      5-min Rain = 0
KTIS 171205Z 20011KT 24/16 A3004 RMK A01 T02370162  RH  066%=      5-min Rain = 0
KTIS 171210Z 20010KT 24/16 A3004 RMK A01 T02370162  RH  066%=      5-min Rain = 0
KTIS 171215Z 20010KT 24/16 A3004 RMK A01 T02360162  RH  066%=      5-min Rain = 0
KTIS 171220Z 20010KT 24/16 A3004 RMK A01 T02370163  RH  066%=      5-min Rain = 0
KTIS 171225Z 20010KT 24/16 A3005 RMK A01 T02380163  RH  066%=      5-min Rain = 0
KTIS 171230Z 20010KT 24/16 A3005 RMK A01 T02390164  RH  066%=      5-min Rain = 0
KTIS 171235Z 20010KT 24/17 A3005 RMK A01 T02400165  RH  066%=      5-min Rain = 0
KTIS 171240Z 21010KT 24/17 A3005 RMK A01 T02420166  RH  066%=      5-min Rain = 0
KTIS 171245Z 21011G16KT 24/17 A3005 RMK A01 T02430166  RH  065%=      5-min Rain = 0
KTIS 171250Z 21011KT 25/17 A3005 RMK A01 T02450167  RH  065%=      5-min Rain = 0
KTIS 171255Z 21010G16KT 25/17 A3005 RMK A01 T02470169  RH  065%=      5-min Rain = 0
KTIS 171300Z 21012KT 25/17 A3005 RMK A01 T02480169  RH  065%=      5-min Rain = 0
KTIS 171305Z 21012G17KT 25/17 A3005 RMK A01 T02490170  RH  064%=      5-min Rain = 0
KTIS 171310Z 20012KT 25/17 A3005 RMK A01 T02510170  RH  064%=      5-min Rain = 0
KTIS 171315Z 20013KT 25/17 A3005 RMK A01 T02530171  RH  063%=      5-min Rain = 0
KTIS 171320Z 20013KT 26/17 A3005 RMK A01 T02550171  RH  063%=      5-min Rain = 0
KTIS 171325Z 20014G20KT 26/17 A3005 RMK A01 T02560171  RH  062%=      5-min Rain = 0
KTIS 171330Z 20016KT 26/17 A3005 RMK A01 T02570171  RH  062%=      5-min Rain = 0
KTIS 171335Z 20017G22KT 26/17 A3005 RMK A01 T02590172  RH  062%=      5-min Rain = 0
KTIS 171340Z 20016G21KT 26/17 A3005 RMK A01 T02610172  RH  061%=      5-min Rain = 0
KTIS 171345Z 20018G24KT 26/17 A3006 RMK A01 T02620172  RH  060%=      5-min Rain = 0
KTIS 171350Z 20016G22KT 26/17 A3006 RMK A01 T02640173  RH  060%=      5-min Rain = 0
KTIS 171355Z 21018G25KT 27/17 A3006 RMK A01 T02660172  RH  059%=      5-min Rain = 0
KTIS 171400Z 20018G24KT 27/17 A3006 RMK A01 T02670172  RH  059%=      5-min Rain = 0
KTIS 171405Z 21016G22KT 27/17 A3006 RMK A01 T02700173  RH  058%=      5-min Rain = 0
KTIS 171410Z 21018G26KT 27/17 A3006 RMK A01 T02720173  RH  057%=      5-min Rain = 0
KTIS 171415Z 21019G25KT 27/17 A3006 RMK A01 T02720172  RH  057%=      5-min Rain = 0
KTIS 171420Z 20018G23KT 27/17 A3006 RMK A01 T02740173  RH  057%=      5-min Rain = 0
KTIS 171425Z 19019G24KT 28/17 A3006 RMK A01 T02760172  RH  056%=      5-min Rain = 0
KTIS 171430Z 20018G23KT 28/17 A3006 RMK A01 T02780173  RH  055%=      5-min Rain = 0
KTIS 171435Z 20018G23KT 28/17 A3007 RMK A01 T02800171  RH  054%=      5-min Rain = 0
KTIS 171440Z 20017G22KT 28/17 A3007 RMK A01 T02800172  RH  055%=      5-min Rain = 0
KTIS 171445Z 21017KT 28/17 A3007 RMK A01 T02820172  RH  054%=      5-min Rain = 0
KTIS 171450Z 20017G24KT 28/17 A3007 RMK A01 T02830172  RH  053%=      5-min Rain = 0
KTIS 171455Z 20017KT 28/17 A3007 RMK A01 T02830172  RH  053%=      5-min Rain = 0
KTIS 171500Z 21017KT 29/17 A3007 RMK A01 T02850171  RH  053%=      5-min Rain = 0
KTIS 171505Z 21016G21KT 29/17 A3007 RMK A01 T02880171  RH  052%=      5-min Rain = 0
KTIS 171510Z 21015G20KT 29/17 A3007 RMK A01 T02880172  RH  052%=      5-min Rain = 0
KTIS 171515Z 20016KT 29/17 A3007 RMK A01 T02890172  RH  052%=      5-min Rain = 0
KTIS 171520Z 20015KT 29/17 A3007 RMK A01 T02920174  RH  052%=      5-min Rain = 0
KTIS 171525Z 21015KT 30/17 A3007 RMK A01 T02950173  RH  050%=      5-min Rain = 0
KTIS 171530Z 20015G20KT 29/17 A3007 RMK A01 T02930174  RH  051%=      5-min Rain = 0
KTIS 171535Z 21016KT 29/17 A3007 RMK A01 T02940174  RH  051%=      5-min Rain = 0
KTIS 171540Z 20016KT 30/17 A3007 RMK A01 T02950174  RH  050%=      5-min Rain = 0
KTIS 171545Z 20015G20KT 30/18 A3007 RMK A01 T03000175  RH  050%=      5-min Rain = 0
KTIS 171550Z 21014KT 30/18 A3006 RMK A01 T03030175  RH  049%=      5-min Rain = 0
KTIS 171555Z 21015G21KT 30/17 A3006 RMK A01 T03040174  RH  048%=      5-min Rain = 0
KTIS 171600Z 21015KT 31/17 A3006 RMK A01 T03050174  RH  048%=      5-min Rain = 0
KTIS 171605Z 20014KT 31/17 A3006 RMK A01 T03060174  RH  047%=      5-min Rain = 0
KTIS 171610Z 21013KT 31/18 A3006 RMK A01 T03100175  RH  047%=      5-min Rain = 0
KTIS 171615Z 21013G18KT 31/17 A3006 RMK A01 T03120173  RH  046%=      5-min Rain = 0
KTIS 171620Z 21013G18KT 32/17 A3006 RMK A01 T03170172  RH  044%=      5-min Rain = 0
KTIS 171625Z 21014G20KT 31/17 A3006 RMK A01 T03130172  RH  045%=      5-min Rain = 0
KTIS 171630Z 20014G20KT 31/17 A3006 RMK A01 T03140171  RH  045%=      5-min Rain = 0
KTIS 171635Z 21014KT 31/17 A3006 RMK A01 T03140171  RH  045%=      5-min Rain = 0
KTIS 171640Z 19016G21KT 32/17 A3006 RMK A01 T03200168  RH  042%=      5-min Rain = 0
KTIS 171645Z 20016G21KT 32/17 A3006 RMK A01 T03190166  RH  042%=      5-min Rain = 0
KTIS 171650Z 21016KT 32/17 A3006 RMK A01 T03200167  RH  042%=      5-min Rain = 0
KTIS 171655Z 21015G22KT 32/17 A3006 RMK A01 T03200167  RH  042%=      5-min Rain = 0
KTIS 171700Z 19017KT 32/17 A3006 RMK A01 T03220167  RH  042%=      5-min Rain = 0
KTIS 171705Z 20016G23KT 32/17 A3006 RMK A01 T03230170  RH  042%=      5-min Rain = 0
KTIS 171710Z 19015G21KT 32/17 A3006 RMK A01 T03240169  RH  042%=      5-min Rain = 0
KTIS 171715Z 20015G21KT 33/17 A3006 RMK A01 T03260171  RH  041%=      5-min Rain = 0
KTIS 171720Z 20013G20KT 33/17 A3006 RMK A01 T03280173  RH  042%=      5-min Rain = 0
KTIS 171725Z 18016G22KT 33/17 A3006 RMK A01 T03310170  RH  040%=      5-min Rain = 0
KTIS 171730Z 18018KT 33/17 A3006 RMK A01 T03280170  RH  041%=      5-min Rain = 0
KTIS 171735Z 19017KT 33/16 A3006 RMK A01 T03290164  RH  039%=      5-min Rain = 0
KTIS 171740Z 19017G24KT 33/16 A3006 RMK A01 T03300164  RH  039%=      5-min Rain = 0
KTIS 171745Z 19016G21KT 33/17 A3006 RMK A01 T03300166  RH  039%=      5-min Rain = 0
KTIS 171750Z 19017G22KT 33/16 A3006 RMK A01 T03320164  RH  039%=      5-min Rain = 0
KTIS 171755Z 19015G20KT 34/16 A3006 RMK A01 T03350163  RH  037%=      5-min Rain = 0
KTIS 171800Z 18017G22KT 34/15 A3005 RMK A01 T03390154  RH  035%=      5-min Rain = 0
KTIS 171805Z 18016G22KT 34/16 A3005 RMK A01 T03380160  RH  036%=      5-min Rain = 0
KTIS 171810Z 18016G23KT 34/16 A3005 RMK A01 T03410157  RH  035%=      5-min Rain = 0
KTIS 171815Z 18016G22KT 34/16 A3005 RMK A01 T03370156  RH  035%=      5-min Rain = 0
KTIS 171820Z 18015G22KT 34/15 A3005 RMK A01 T03390154  RH  035%=      5-min Rain = 0
KTIS 171825Z 19018G24KT 34/15 A3004 RMK A01 T03420152  RH  033%=      5-min Rain = 0
KTIS 171830Z 18015G24KT 34/16 A3004 RMK A01 T03400159  RH  035%=      5-min Rain = 0
KTIS 171835Z 18016G22KT 34/16 A3004 RMK A01 T03420156  RH  034%=      5-min Rain = 0
KTIS 171840Z 18016G22KT 34/16 A3004 RMK A01 T03410159  RH  035%=      5-min Rain = 0
KTIS 171845Z 18016KT 35/16 A3004 RMK A01 T03470155  RH  033%=      5-min Rain = 0
KTIS 171850Z 17017G22KT 34/15 A3004 RMK A01 T03440154  RH  034%=      5-min Rain = 0
KTIS 171855Z 18015G21KT 34/15 A3004 RMK A01 T03430154  RH  034%=      5-min Rain = 0
KTIS 171900Z 19013G20KT 35/16 A3003 RMK A01 T03490155  RH  033%=      5-min Rain = 0
KTIS 171905Z 18016G23KT 35/15 A3003 RMK A01 T03470154  RH  033%=      5-min Rain = 0
KTIS 171910Z 19012G18KT 35/16 A3003 RMK A01 T03480155  RH  033%=      5-min Rain = 0
KTIS 171915Z 18017G23KT 35/15 A3003 RMK A01 T03480152  RH  032%=      5-min Rain = 0
KTIS 171920Z 17014G22KT 34/15 A3003 RMK A01 T03440154  RH  034%=      5-min Rain = 0
KTIS 171925Z 17013G21KT 35/16 A3002 RMK A01 T03470158  RH  034%=      5-min Rain = 0
KTIS 171930Z 19014G22KT 35/15 A3002 RMK A01 T03520150  RH  031%=      5-min Rain = 0
KTIS 171935Z 20015G21KT 35/15 A3002 RMK A01 T03500149  RH  031%=      5-min Rain = 0
KTIS 171940Z 19015KT 35/15 A3002 RMK A01 T03520146  RH  031%=      5-min Rain = 0
KTIS 171945Z 18014G22KT 35/14 A3002 RMK A01 T03530142  RH  030%=      5-min Rain = 0
KTIS 171950Z 19014KT 35/14 A3002 RMK A01 T03500143  RH  030%=      5-min Rain = 0
KTIS 171955Z 18014G19KT 36/14 A3002 RMK A01 T03580143  RH  029%=      5-min Rain = 0
KTIS 172000Z 17012G17KT 35/14 A3002 RMK A01 T03510143  RH  030%=      5-min Rain = 0
KTIS 172005Z 17014G19KT 36/15 A3002 RMK A01 T03550146  RH  030%=      5-min Rain = 0
KTIS 172010Z 19016G21KT 35/14 A3001 RMK A01 T03510139  RH  029%=      5-min Rain = 0
KTIS 172015Z 18014G22KT 35/14 A3001 RMK A01 T03520137  RH  029%=      5-min Rain = 0
KTIS 172020Z 19015G24KT 35/14 A3001 RMK A01 T03530138  RH  029%=      5-min Rain = 0
KTIS 172025Z 18015G20KT 35/14 A3001 RMK A01 T03530138  RH  029%=      5-min Rain = 0
KTIS 172030Z 19015G21KT 36/13 A3001 RMK A01 T03560134  RH  028%=      5-min Rain = 0
KTIS 172035Z 18017G24KT 35/13 A3001 RMK A01 T03540130  RH  027%=      5-min Rain = 0
KTIS 172040Z 17015G22KT 36/14 A3001 RMK A01 T03550135  RH  028%=      5-min Rain = 0
KTIS 172045Z 18011G18KT 36/13 A30 RMK A01 T03580133  RH  027%=      5-min Rain = 0
KTIS 172050Z 21014KT 36/13 A30 RMK A01 T03590128  RH  026%=      5-min Rain = 0
KTIS 172055Z 18015G21KT 36/12 A30 RMK A01 T03620118  RH  024%=      5-min Rain = 0
KTIS 172100Z 18013G19KT 36/13 A30 RMK A01 T03590126  RH  026%=      5-min Rain = 0
KTIS 172105Z 20013G19KT 36/12 A30 RMK A01 T03600121  RH  025%=      5-min Rain = 0
KTIS 172110Z 17017G23KT 36/12 A30 RMK A01 T03600118  RH  024%=      5-min Rain = 0
KTIS 172115Z 17015KT 36/11 A30 RMK A01 T03570113  RH  024%=      5-min Rain = 0
KTIS 172120Z 17017G23KT 36/12 A2999 RMK A01 T03570120  RH  025%=      5-min Rain = 0
KTIS 172125Z 18015G22KT 36/12 A2999 RMK A01 T03580124  RH  025%=      5-min Rain = 0
KTIS 172130Z 17016KT 36/12 A2999 RMK A01 T03610123  RH  025%=      5-min Rain = 0
KTIS 172135Z 17018G25KT 36/12 A2999 RMK A01 T03590121  RH  025%=      5-min Rain = 0
KTIS 172140Z 18015KT 36/12 A2999 RMK A01 T03590116  RH  024%=      5-min Rain = 0
KTIS 172145Z 18016KT 36/12 A2999 RMK A01 T03590116  RH  024%=      5-min Rain = 0
KTIS 172150Z 19014G19KT 35/12 A2998 RMK A01 T03530120  RH  025%=      5-min Rain = 0
KTIS 172155Z 20013G19KT 36/12 A2998 RMK A01 T03560117  RH  025%=      5-min Rain = 0
KTIS 172200Z 18015G20KT 35/12 A2998 RMK A01 T03520124  RH  026%=      5-min Rain = 0
KTIS 172205Z 18014G19KT 35/13 A2998 RMK A01 T03540128  RH  027%=      5-min Rain = 0
KTIS 172210Z 19014G20KT 36/13 A2998 RMK A01 T03580126  RH  026%=      5-min Rain = 0
KTIS 172215Z 17013G18KT 36/13 A2998 RMK A01 T03600127  RH  026%=      5-min Rain = 0
KTIS 172220Z 17015G21KT 36/14 A2998 RMK A01 T03580135  RH  027%=      5-min Rain = 0
KTIS 172225Z 17015G20KT 36/13 A2997 RMK A01 T03560132  RH  027%=      5-min Rain = 0
KTIS 172230Z 18014G19KT 36/13 A2997 RMK A01 T03570129  RH  026%=      5-min Rain = 0
KTIS 172235Z 18014G22KT 36/13 A2997 RMK A01 T03560128  RH  026%=      5-min Rain = 0
KTIS 172240Z 20015KT 36/13 A2997 RMK A01 T03580126  RH  026%=      5-min Rain = 0
KTIS 172245Z 19013G18KT 36/13 A2997 RMK A01 T03570125  RH  026%=      5-min Rain = 0
KTIS 172250Z 19014KT 36/12 A2997 RMK A01 T03550119  RH  025%=      5-min Rain = 0
KTIS 172255Z 18012KT 36/12 A2996 RMK A01 T03560120  RH  025%=      5-min Rain = 0
KTIS 172300Z 20015G20KT 35/12 A2996 RMK A01 T03540122  RH  026%=      5-min Rain = 0
KTIS 172305Z 19012G18KT 36/13 A2996 RMK A01 T03570133  RH  027%=      5-min Rain = 0
KTIS 172310Z 19016G22KT 36/13 A2996 RMK A01 T03570133  RH  027%=      5-min Rain = 0
KTIS 172315Z 18011G18KT 35/13 A2996 RMK A01 T03540132  RH  027%=      5-min Rain = 0
KTIS 172320Z 18015KT 35/13 A2996 RMK A01 T03540130  RH  027%=      5-min Rain = 0
KTIS 172325Z 18016G21KT 35/13 A2996 RMK A01 T03520133  RH  028%=      5-min Rain = 0
KTIS 172330Z 18016KT 35/14 A2996 RMK A01 T03500137  RH  029%=      5-min Rain = 0
KTIS 172335Z 18016G22KT 35/14 A2996 RMK A01 T03500135  RH  029%=      5-min Rain = 0
KTIS 172340Z 18014G19KT 35/14 A2996 RMK A01 T03500136  RH  029%=      5-min Rain = 0
KTIS 172345Z 17014KT 35/14 A2995 RMK A01 T03470138  RH  030%=      5-min Rain = 0
KTIS 172350Z 17015KT 35/14 A2995 RMK A01 T03460138  RH  030%=      5-min Rain = 0
KTIS 172355Z 17014G19KT 34/14 A2995 RMK A01 T03440138  RH  030%=      5-min Rain = 0
KTIS 180000Z 17015G22KT 35/14 A2995 RMK A01 T03480138  RH  029%=      5-min Rain = 0
KTIS 180005Z 17015KT 35/14 A2995 RMK A01 T03450137  RH  030%=      5-min Rain = 0
KTIS 180010Z 16015G20KT 34/14 A2995 RMK A01 T03420138  RH  031%=      5-min Rain = 0
KTIS 180015Z 17018G25KT 34/13 A2995 RMK A01 T03410134  RH  030%=      5-min Rain = 0
KTIS 180020Z 17014G19KT 34/13 A2995 RMK A01 T03410134  RH  030%=      5-min Rain = 0
KTIS 180025Z 17013G19KT 34/13 A2995 RMK A01 T03400134  RH  030%=      5-min Rain = 0
KTIS 180030Z 16015G20KT 34/13 A2995 RMK A01 T03400134  RH  030%=      5-min Rain = 0
KTIS 180035Z 16016KT 34/13 A2995 RMK A01 T03360132  RH  030%=      5-min Rain = 0
KTIS 180040Z 17018KT 34/13 A2995 RMK A01 T03350131  RH  030%=      5-min Rain = 0
KTIS 180045Z 17015G20KT 33/13 A2995 RMK A01 T03340131  RH  031%=      5-min Rain = 0
KTIS 180050Z 17014G19KT 33/13 A2995 RMK A01 T03340132  RH  031%=      5-min Rain = 0
KTIS 180055Z 16015G20KT 33/13 A2995 RMK A01 T03320130  RH  031%=      5-min Rain = 0
KTIS 180100Z 17014KT 33/13 A2995 RMK A01 T03310130  RH  031%=      5-min Rain = 0
KTIS 180105Z 17013G19KT 33/13 A2995 RMK A01 T03300129  RH  031%=      5-min Rain = 0
KTIS 180110Z 17013KT 33/13 A2995 RMK A01 T03280131  RH  031%=      5-min Rain = 0
KTIS 180115Z 17014KT 33/13 A2994 RMK A01 T03260132  RH  032%=      5-min Rain = 0
KTIS 180120Z 17014KT 32/13 A2994 RMK A01 T03240132  RH  033%=      5-min Rain = 0
KTIS 180125Z 16014KT 32/13 A2994 RMK A01 T03220132  RH  033%=      5-min Rain = 0
KTIS 180130Z 17013KT 32/13 A2994 RMK A01 T03200132  RH  033%=      5-min Rain = 0
KTIS 180135Z 17012KT 32/13 A2994 RMK A01 T03170132  RH  034%=      5-min Rain = 0
KTIS 180140Z 17011KT 31/13 A2994 RMK A01 T03140132  RH  034%=      5-min Rain = 0
KTIS 180145Z 17010KT 31/13 A2995 RMK A01 T03110131  RH  035%=      5-min Rain = 0
KTIS 180150Z 17011KT 31/13 A2995 RMK A01 T03090131  RH  035%=      5-min Rain = 0
KTIS 180155Z 17009KT 31/13 A2995 RMK A01 T03070132  RH  036%=      5-min Rain = 0
KTIS 180200Z 17009KT 30/13 A2995 RMK A01 T03030133  RH  037%=      5-min Rain = 0
KTIS 180205Z 17009KT 30/13 A2995 RMK A01 T02990134  RH  038%=      5-min Rain = 0
KTIS 180210Z 17008KT 29/14 A2996 RMK A01 T02940135  RH  039%=      5-min Rain = 0
KTIS 180215Z 17008KT 29/13 A2996 RMK A01 T02940133  RH  039%=      5-min Rain = 0
KTIS 180220Z 17008KT 29/13 A2996 RMK A01 T02940134  RH  039%=      5-min Rain = 0
KTIS 180225Z 17009KT 29/14 A2996 RMK A01 T02910135  RH  040%=      5-min Rain = 0
KTIS 180230Z 16010KT 29/14 A2996 RMK A01 T02880135  RH  041%=      5-min Rain = 0
KTIS 180235Z 16009KT 28/14 A2996 RMK A01 T02840136  RH  042%=      5-min Rain = 0
KTIS 180240Z 15009KT 28/14 A2996 RMK A01 T02810137  RH  043%=      5-min Rain = 0
KTIS 180245Z 15008KT 28/14 A2996 RMK A01 T02770138  RH  044%=      5-min Rain = 0
KTIS 180250Z 14008KT 27/14 A2996 RMK A01 T02710137  RH  046%=      5-min Rain = 0
KTIS 180255Z 14009KT 27/14 A2996 RMK A01 T02680137  RH  046%=      5-min Rain = 0
KTIS 180300Z 15010KT 27/14 A2996 RMK A01 T02680138  RH  047%=      5-min Rain = 0
KTIS 180305Z 15010KT 27/14 A2996 RMK A01 T02690139  RH  047%=      5-min Rain = 0
KTIS 180310Z 15011KT 27/14 A2996 RMK A01 T02700142  RH  047%=      5-min Rain = 0
KTIS 180315Z 15011G16KT 27/14 A2997 RMK A01 T02730144  RH  047%=      5-min Rain = 0
KTIS 180320Z 15010KT 27/15 A2997 RMK A01 T02720145  RH  048%=      5-min Rain = 0
KTIS 180325Z 16010KT 27/15 A2997 RMK A01 T02690145  RH  049%=      5-min Rain = 0
KTIS 180330Z 16011KT 27/15 A2997 RMK A01 T02680145  RH  049%=      5-min Rain = 0
KTIS 180335Z 16012KT 27/15 A2997 RMK A01 T02690146  RH  049%=      5-min Rain = 0
KTIS 180340Z 16011KT 27/15 A2997 RMK A01 T02700147  RH  049%=      5-min Rain = 0
KTIS 180345Z 16010KT 27/15 A2998 RMK A01 T02700147  RH  049%=      5-min Rain = 0
KTIS 180350Z 16011KT 27/15 A2998 RMK A01 T02700147  RH  049%=      5-min Rain = 0
KTIS 180355Z 16011KT 27/15 A2998 RMK A01 T02690148  RH  049%=      5-min Rain = 0
KTIS 180400Z 16010KT 27/15 A2998 RMK A01 T02670149  RH  050%=      5-min Rain = 0
KTIS 180405Z 16011KT 27/15 A2998 RMK A01 T02660149  RH  051%=      5-min Rain = 0
KTIS 180410Z 16011KT 26/15 A2998 RMK A01 T02640149  RH  051%=      5-min Rain = 0
KTIS 180415Z 16011KT 26/15 A2998 RMK A01 T02640150  RH  052%=      5-min Rain = 0
KTIS 180420Z 16010KT 26/15 A2999 RMK A01 T02630150  RH  052%=      5-min Rain = 0
KTIS 180425Z 16010KT 26/15 A2999 RMK A01 T02620151  RH  053%=      5-min Rain = 0
KTIS 180430Z 16010KT 26/15 A2999 RMK A01 T02610151  RH  053%=      5-min Rain = 0
KTIS 180435Z 16010KT 26/15 A2999 RMK A01 T02610151  RH  053%=      5-min Rain = 0
KTIS 180440Z 16011KT 26/15 A2998 RMK A01 T02610152  RH  053%=      5-min Rain = 0
KTIS 180445Z 16012KT 26/15 A2998 RMK A01 T02610152  RH  053%=      5-min Rain = 0
KTIS 180450Z 16012KT 26/15 A2998 RMK A01 T02620154  RH  054%=      5-min Rain = 0
KTIS 180455Z 16013KT 26/16 A2998 RMK A01 T02630155  RH  054%=      5-min Rain = 0

Page generated in 0.0126 seconds.